Latest Weather Observations for Combienbar

IDV60801

Issued at 10:02 am EDT Tuesday 9 February 2016 (issued every 30 minutes, with the page automatically refreshed every 10 minutes)

About weather observations | Map of weather stations | Latest weather observations for VIC | Other Formats
Station Details ID: 084143 Name: COMBIENBAR AWS Lat: -37.34 Lon: 149.02 Height: 640.0 m
Data from the previous 72 hours. | See also: Recent months at Combienbar
Date/Time
EDT
Temp
°C
App
Temp
°C
Dew
Point
Rel
Hum
%
Delta-T
°C
Wind Press
QNH
hPa
Press
MSL
hPa
Rain
since 9 am
mm
Dir
 
Spd
km/h
Gust
km/h
Spd
kts
Gust
kts
09/10:00am 18.2 18.6 12.6 70 3.2 NNE 2 6 1 3 1023.5 1021.0 0.0
09/09:30am 17.1 17.9 12.6 75 2.6 CALM 0 4 0 2 1023.8 1021.3 0.0
09/09:00am 16.3 17.0 12.3 77 2.3 CALM 0 0 0 0 1023.8 1021.3 0.0
09/08:30am 16.3 17.4 13.4 83 1.7 CALM 0 4 0 2 1023.7 1021.2 0.0
09/08:00am 15.5 17.1 14.9 96 0.4 CALM 0 0 0 0 1023.4 1020.8 0.0
09/07:30am 13.3 14.1 12.7 96 0.3 CALM 0 0 0 0 1023.4 1020.8 0.0
09/07:00am 12.9 13.7 12.4 97 0.3 CALM 0 0 0 0 1023.3 1020.7 0.0
09/06:30am 12.5 13.1 12.0 97 0.3 CALM 0 0 0 0 1023.1 1020.5 0.0
09/06:00am 12.6 13.3 12.1 97 0.3 CALM 0 0 0 0 1022.9 1020.3 0.0
09/05:30am 12.4 13.0 11.9 97 0.3 CALM 0 0 0 0 1022.6 1020.1 0.0
09/05:00am 12.6 13.3 12.1 97 0.3 CALM 0 0 0 0 1022.4 1019.9 0.0
09/04:30am 12.9 13.7 12.4 97 0.3 CALM 0 0 0 0 1022.3 1019.8 0.0
09/04:00am 12.8 13.5 12.3 97 0.3 CALM 0 0 0 0 1022.2 1019.7 0.0
09/03:30am 13.1 13.9 12.6 97 0.3 CALM 0 0 0 0 1022.3 1019.8 0.0
09/03:00am 13.3 14.2 12.8 97 0.3 CALM 0 0 0 0 1022.5 1020.0 0.0
09/02:30am 13.5 14.4 13.0 97 0.3 CALM 0 0 0 0 1022.6 1020.1 0.0
09/02:00am 13.7 14.7 13.2 97 0.3 CALM 0 0 0 0 1022.9 1020.3 0.0
09/01:30am 13.9 15.0 13.4 97 0.3 CALM 0 2 0 1 1023.1 1020.5 0.0
09/01:00am 14.2 15.3 13.6 96 0.3 CALM 0 0 0 0 1023.4 1020.8 0.0
09/12:30am 14.4 15.6 13.8 96 0.3 CALM 0 0 0 0 1023.3 1020.7 0.0
09/12:00am 14.5 15.7 13.7 95 0.5 CALM 0 0 0 0 1023.4 1020.8 0.0
 
Date/Time
EDT
Temp
°C
App
Temp
°C
Dew
Point
Rel
Hum
%
Delta-T
°C
Wind Press
QNH
hPa
Press
MSL
hPa
Rain
since 9 am
mm
Dir
 
Spd
km/h
Gust
km/h
Spd
kts
Gust
kts
08/11:30pm 14.4 15.4 13.3 93 0.6 CALM 0 0 0 0 1023.5 1021.0 0.0
08/11:00pm 14.8 16.0 13.7 93 0.6 CALM 0 0 0 0 1023.6 1021.1 0.0
08/10:30pm 15.4 16.7 14.1 92 0.8 CALM 0 0 0 0 1023.6 1021.1 0.0
08/10:00pm 15.3 16.6 14.2 93 0.6 CALM 0 0 0 0 1023.4 1020.8 0.0
08/09:30pm 15.1 16.4 14.1 94 0.6 CALM 0 0 0 0 1023.3 1020.7 0.0
08/09:00pm 15.2 16.4 13.9 92 0.8 CALM 0 2 0 1 1023.0 1020.4 0.0
08/08:30pm 15.6 16.9 14.1 91 0.9 CALM 0 2 0 1 1022.6 1020.1 0.0
08/08:00pm 16.5 17.9 14.5 88 1.2 CALM 0 2 0 1 1022.4 1019.9 0.0
08/07:30pm 17.6 18.8 15.0 85 1.6 SSW 2 6 1 3 1022.3 1019.8 0.0
08/07:00pm 18.3 20.1 15.4 83 1.7 CALM 0 0 0 0 1022.0 1019.4 0.0
08/06:30pm 18.4 20.2 15.6 84 1.7 CALM 0 2 0 1 1021.8 1019.2 0.0
08/06:00pm 18.1 19.9 15.4 84 1.6 CALM 0 2 0 1 1021.8 1019.2 0.0
08/05:30pm 18.3 20.2 15.7 85 1.6 CALM 0 0 0 0 1021.9 1019.3 0.0
08/05:00pm 18.4 20.2 15.5 83 1.8 CALM 0 2 0 1 1022.0 1019.4 0.0
08/04:30pm 18.8 20.6 15.5 81 2.0 CALM 0 2 0 1 1022.1 1019.6 0.0
08/04:00pm 19.7 21.3 16.0 79 2.3 SSW 2 9 1 5 1022.0 1019.4 0.0
08/03:30pm 20.7 22.1 16.5 77 2.6 SW 4 7 2 4 1021.8 1019.2 0.0
08/03:00pm 23.2 25.4 17.4 70 3.7 SSW 2 7 1 4 1021.7 1019.1 0.0
08/02:30pm 25.0 27.3 17.7 64 4.7 SSW 2 6 1 3 1021.7 1019.1 0.0
08/02:00pm 24.4 26.7 17.6 66 4.3 SSW 2 6 1 3 1021.7 1019.1 0.0
08/01:30pm 24.1 26.3 17.4 66 4.3 SW 2 6 1 3 1021.8 1019.2 0.0
08/01:00pm 23.7 25.6 16.7 65 4.4 SW 2 4 1 2 1021.8 1019.2 0.0
08/12:30pm 24.1 26.5 16.9 64 4.6 CALM 0 4 0 2 1022.0 1019.4 0.0
08/12:00pm 23.2 24.6 15.5 62 4.7 SSW 2 4 1 2 1022.2 1019.7 0.0
08/11:30am 22.0 23.5 14.6 63 4.5 CALM 0 0 0 0 1022.3 1019.8 0.0
08/11:00am 21.1 22.1 13.3 61 4.6 CALM 0 4 0 2 1022.4 1019.9 0.0
08/10:30am 21.1 21.7 12.0 56 5.3 CALM 0 0 0 0 1022.3 1019.8 0.0
08/10:00am 21.2 21.8 11.8 55 5.4 CALM 0 0 0 0 1022.3 1019.8 0.0
08/09:30am 20.1 20.1 9.7 51 5.7 CALM 0 0 0 0 1022.2 1019.7 0.0
08/09:00am 20.1 19.9 9.1 49 6.0 CALM 0 0 0 0 1022.1 1019.6 0.0
08/08:30am 21.3 21.1 9.2 46 6.6 CALM 0 0 0 0 1021.9 1019.3 0.0
08/08:00am 20.7 20.4 8.7 46 6.5 CALM 0 0 0 0 1021.8 1019.2 0.0
08/07:30am 19.6 19.1 8.0 47 6.2 CALM 0 0 0 0 1021.7 1019.1 0.0
08/07:00am 18.5 18.2 8.5 52 5.3 CALM 0 0 0 0 1021.5 1018.9 0.0
08/06:30am 18.0 17.5 7.7 51 5.4 CALM 0 0 0 0 1021.2 1018.6 0.0
08/06:00am 18.7 18.1 7.5 48 5.9 CALM 0 0 0 0 1020.8 1018.3 0.0
08/05:30am 18.9 18.4 7.7 48 5.9 CALM 0 0 0 0 1020.7 1018.2 0.0
08/05:00am 19.4 18.8 7.5 46 6.3 CALM 0 0 0 0 1020.5 1017.9 0.0
08/04:30am 19.4 18.8 7.5 46 6.3 CALM 0 0 0 0 1020.4 1017.8 0.0
08/04:00am 19.5 18.9 7.3 45 6.4 CALM 0 0 0 0 1020.5 1017.9 0.0
08/03:30am 19.8 19.0 6.5 42 6.9 CALM 0 2 0 1 1020.4 1017.8 0.0
08/03:00am 20.0 19.1 6.0 40 7.2 CALM 0 4 0 2 1020.4 1017.8 0.0
08/02:30am 20.0 18.9 5.3 38 7.5 CALM 0 4 0 2 1020.5 1017.9 0.0
08/02:00am 20.4 18.9 4.8 36 7.8 WNW 2 6 1 3 1020.6 1018.1 0.0
08/01:30am 20.3 19.0 3.9 34 8.1 CALM 0 7 0 4 1020.7 1018.2 0.0
08/01:00am 20.1 18.7 3.3 33 8.2 CALM 0 4 0 2 1020.7 1018.2 0.0
08/12:30am 20.1 18.7 3.3 33 8.2 CALM 0 2 0 1 1020.8 1018.3 0.0
08/12:00am 19.8 18.5 4.3 36 7.7 CALM 0 2 0 1 1020.9 1018.4 0.0
 
Date/Time
EDT
Temp
°C
App
Temp
°C
Dew
Point
Rel
Hum
%
Delta-T
°C
Wind Press
QNH
hPa
Press
MSL
hPa
Rain
since 9 am
mm
Dir
 
Spd
km/h
Gust
km/h
Spd
kts
Gust
kts
07/11:30pm 19.5 18.5 5.6 40 7.1 CALM 0 0 0 0 1020.9 1018.4 0.0
07/11:00pm 19.5 18.9 7.3 45 6.4 CALM 0 2 0 1 1021.2 1018.6 0.0
07/10:30pm 19.1 20.3 13.7 71 3.2 CALM 0 0 0 0 1021.2 1018.6 0.0
07/10:00pm 19.1 19.9 12.4 65 3.8 CALM 0 0 0 0 1021.0 1018.5 0.0
07/09:30pm 18.7 20.2 14.6 77 2.4 CALM 0 0 0 0 1020.9 1018.4 0.0
07/09:00pm 18.9 20.7 15.4 80 2.1 CALM 0 0 0 0 1020.6 1018.1 0.0
07/08:30pm 19.5 21.2 15.2 76 2.6 CALM 0 0 0 0 1020.4 1017.8 0.0
07/08:00pm 20.4 22.1 15.2 72 3.2 CALM 0 0 0 0 1020.0 1017.4 0.0
07/07:30pm 21.6 23.5 15.7 69 3.6 CALM 0 4 0 2 1019.8 1017.2 0.0
07/07:00pm 22.6 24.6 15.9 66 4.1 CALM 0 2 0 1 1019.3 1016.8 0.0
07/06:30pm 23.8 26.0 16.6 64 4.5 CALM 0 4 0 2 1019.0 1016.4 0.0
07/06:00pm 24.9 26.3 15.5 56 5.8 SSW 2 4 1 2 1018.8 1016.2 0.0
07/05:30pm 25.5 27.0 15.8 55 6.1 SSW 2 4 1 2 1018.7 1016.1 0.0
07/05:00pm 25.8 27.9 17.2 59 5.5 SSW 2 4 1 2 1018.8 1016.2 0.0
07/04:30pm 25.8 28.1 17.7 61 5.2 SSW 2 4 1 2 1018.7 1016.1 0.0
07/04:00pm 27.1 29.7 18.4 59 5.7 SSW 2 7 1 4 1018.7 1016.1 0.0
07/03:30pm 27.6 29.7 18.0 55 6.2 SSW 4 7 2 4 1018.8 1016.2 0.0
07/03:00pm 27.2 29.1 16.8 53 6.6 SW 2 6 1 3 1018.8 1016.2 0.0
07/02:30pm 28.0 30.2 17.5 52 6.8 SSW 2 4 1 2 1018.9 1016.3 0.0
07/02:00pm 27.1 29.2 17.3 55 6.3 SW 2 6 1 3 1018.9 1016.3 0.0
07/01:30pm 26.7 29.1 16.9 55 6.3 CALM 0 4 0 2 1018.9 1016.3 0.0
07/01:00pm 26.3 28.7 17.1 57 5.9 CALM 0 0 0 0 1019.0 1016.4 0.0
07/12:30pm 25.9 28.3 17.0 58 5.7 CALM 0 0 0 0 1019.0 1016.4 0.0
07/12:00pm 24.6 26.7 16.3 60 5.2 CALM 0 4 0 2 1019.2 1016.7 0.0
07/11:30am 23.8 25.7 15.8 61 5.0 CALM 0 2 0 1 1019.3 1016.8 0.0
07/11:00am 23.1 25.0 15.7 63 4.6 CALM 0 2 0 1 1019.4 1016.9 0.0
07/10:30am 23.7 26.0 16.7 65 4.4 CALM 0 4 0 2 1019.3 1016.8 0.0
07/10:00am 23.8 26.0 16.6 64 4.5 CALM 0 4 0 2 1019.1 1016.5 0.0
07/09:30am 23.1 24.3 15.9 64 4.5 NE 4 6 2 3 1019.0 1016.4 0.0
07/09:00am 22.8 24.4 15.9 65 4.3 NNE 2 6 1 3 1019.1 1016.5 0.0
07/08:30am 22.1 24.0 15.7 67 3.9 CALM 0 0 0 0 1018.9 1016.3 0.0
07/08:00am 21.1 22.9 15.6 71 3.4 CALM 0 0 0 0 1018.9 1016.3 0.0
07/07:30am 18.3 19.1 12.7 70 3.2 CALM 0 0 0 0 1018.7 1016.1 0.0
07/07:00am 17.6 18.3 12.3 71 3.0 CALM 0 0 0 0 1018.5 1015.9 0.0
07/06:30am 17.3 17.9 12.0 71 3.0 CALM 0 0 0 0 1018.2 1015.6 0.0
07/06:00am 17.2 17.9 12.1 72 2.9 CALM 0 0 0 0 1018.1 1015.5 0.0
07/05:30am 17.2 17.9 12.3 73 2.8 CALM 0 0 0 0 1017.9 1015.3 0.0
07/05:00am 16.8 17.5 12.1 74 2.7 CALM 0 0 0 0 1017.9 1015.3 0.0
07/04:30am 16.6 17.2 12.0 74 2.6 CALM 0 0 0 0 1017.9 1015.3 0.0
07/04:00am 16.7 17.3 11.8 73 2.8 CALM 0 0 0 0 1017.7 1015.1 0.0
07/03:30am 16.2 16.8 12.0 76 2.4 CALM 0 0 0 0 1018.0 1015.4 0.0
07/03:00am 15.8 16.4 12.0 78 2.1 CALM 0 0 0 0 1018.0 1015.4 0.0
07/02:30am 16.1 16.8 12.1 77 2.3 CALM 0 0 0 0 1018.1 1015.5 0.0
07/02:00am 15.7 16.4 12.1 79 2.0 CALM 0 0 0 0 1018.2 1015.6 0.0
07/01:30am 15.4 15.6 12.0 80 1.9 N 2 4 1 2 1018.5 1015.9 0.0
07/01:00am 16.3 16.6 12.3 77 2.3 NNW 2 6 1 3 1018.9 1016.3 0.0
07/12:30am 14.7 15.1 12.4 86 1.3 N 2 4 1 2 1019.0 1016.4 0.0
07/12:00am 14.4 14.4 12.4 88 1.1 NNE 4 6 2 3 1019.0 1016.4 0.0
 
Date/Time
EDT
Temp
°C
App
Temp
°C
Dew
Point
Rel
Hum
%
Delta-T
°C
Wind Press
QNH
hPa
Press
MSL
hPa
Rain
since 9 am
mm
Dir
 
Spd
km/h
Gust
km/h
Spd
kts
Gust
kts
06/11:30pm 14.7 15.1 12.6 87 1.2 NNE 2 4 1 2 1019.1 1016.5 0.0
06/11:00pm 15.0 15.5 12.7 86 1.3 NNE 2 4 1 2 1019.2 1016.7 0.0
06/10:30pm 15.7 16.2 12.8 83 1.7 NNE 2 4 1 2 1019.3 1016.8 0.0
06/10:00pm 16.6 16.8 12.9 79 2.1 NNW 4 7 2 4 1019.3 1016.8 0.0
06/09:30pm 15.8 16.7 12.9 83 1.7 CALM 0 0 0 0 1019.1 1016.5 0.0
06/09:00pm 16.5 17.2 13.4 82 1.8 NNE 2 6 1 3 1018.9 1016.3 0.0
06/08:30pm 17.1 17.5 13.6 80 2.0 N 4 9 2 5 1018.6 1016.0 0.0
06/08:00pm 17.8 18.2 13.7 77 2.4 NNE 4 6 2 3 1018.5 1015.9 0.0
06/07:30pm 18.6 19.5 13.9 74 2.8 NNE 2 6 1 3 1018.4 1015.8 0.0
06/07:00pm 19.6 20.1 14.0 70 3.3 NNE 4 7 2 4 1018.3 1015.7 0.0
06/06:30pm 21.0 21.1 13.9 64 4.2 NNE 6 13 3 7 1018.1 1015.5 0.0
06/06:00pm 23.1 23.5 14.7 59 5.1 NNE 6 7 3 4 1018.1 1015.5 0.0
06/05:30pm 23.9 24.5 15.4 59 5.3 NNE 6 11 3 6 1018.1 1015.5 0.0
06/05:00pm 24.5 25.1 15.4 57 5.6 NNE 6 9 3 5 1018.3 1015.7 0.0
06/04:30pm 24.7 25.7 15.3 56 5.8 NNE 4 9 2 5 1018.4 1015.8 0.0
06/04:00pm 25.0 26.0 15.3 55 6.0 NNE 4 9 2 5 1018.6 1016.0 0.0
06/03:30pm 25.2 26.6 16.4 58 5.5 NE 4 13 2 7 1018.7 1016.1 0.0
06/03:00pm 25.3 26.2 16.2 57 5.7 NE 6 9 3 5 1018.9 1016.3 0.0
06/02:30pm 24.8 25.8 15.4 56 5.8 NNE 4 9 2 5 1019.2 1016.7 0.0
06/02:00pm 24.5 25.4 16.0 59 5.3 NNE 6 13 3 7 1019.4 1016.9 0.0
06/01:30pm 24.7 25.4 15.6 57 5.7 NNE 6 13 3 7 1019.8 1017.2 0.0
06/01:00pm 24.5 25.0 15.1 55 5.8 NE 6 13 3 7 1020.0 1017.4 0.0
06/12:30pm 23.4 23.9 14.9 59 5.2 NE 6 9 3 5 1020.4 1017.8 0.0
06/12:00pm 22.4 22.8 14.8 62 4.6 NE 6 9 3 5 1020.7 1018.2 0.0
06/11:30am 21.3 22.1 14.9 67 3.9 NNE 4 7 2 4 1020.9 1018.4 0.0
06/11:00am 21.3 21.8 15.6 70 3.5 NE 7 17 4 9 1021.2 1018.6 0.0
06/10:30am 20.0 20.4 14.8 72 3.1 NE 6 13 3 7 1021.4 1018.8 0.0

Other Formats:

Comma delimited format used in spreadsheet applications
http://www.bom.gov.au/fwo/IDV60801/IDV60801.94914.axf

JavaScript Object Notation format (JSON) in row-major order
http://www.bom.gov.au/fwo/IDV60801/IDV60801.94914.json